sensor_id;sensor_type;location;lat;lon;timestamp;pressure;altitude;pressure_sealevel;temperature;humidity
64253;BME280;50592;52.958;-7.470;2023-03-13T00:01:34;97143.00;;;11.14;100.00
64253;BME280;50592;52.958;-7.470;2023-03-13T00:04:05;97141.63;;;11.11;100.00
64253;BME280;50592;52.958;-7.470;2023-03-13T00:06:38;97131.06;;;11.11;100.00
64253;BME280;50592;52.958;-7.470;2023-03-13T00:09:10;97140.34;;;11.14;100.00
64253;BME280;50592;52.958;-7.470;2023-03-13T00:11:37;97143.47;;;11.11;100.00
64253;BME280;50592;52.958;-7.470;2023-03-13T00:14:08;97146.69;;;11.13;100.00
64253;BME280;50592;52.958;-7.470;2023-03-13T00:16:35;97142.41;;;11.12;100.00
64253;BME280;50592;52.958;-7.470;2023-03-13T00:19:07;97123.44;;;11.15;100.00
64253;BME280;50592;52.958;-7.470;2023-03-13T00:21:34;97123.34;;;11.10;100.00
64253;BME280;50592;52.958;-7.470;2023-03-13T00:24:06;97108.28;;;11.10;100.00
64253;BME280;50592;52.958;-7.470;2023-03-13T00:26:37;97102.69;;;11.07;100.00
64253;BME280;50592;52.958;-7.470;2023-03-13T00:29:07;97101.63;;;11.08;100.00
64253;BME280;50592;52.958;-7.470;2023-03-13T00:31:37;97097.38;;;11.07;100.00
64253;BME280;50592;52.958;-7.470;2023-03-13T00:34:04;97087.28;;;11.03;100.00
64253;BME280;50592;52.958;-7.470;2023-03-13T00:36:34;97082.78;;;11.04;100.00
64253;BME280;50592;52.958;-7.470;2023-03-13T00:39:02;97077.41;;;10.99;100.00
64253;BME280;50592;52.958;-7.470;2023-03-13T00:41:32;97073.13;;;10.98;100.00
64253;BME280;50592;52.958;-7.470;2023-03-13T00:43:59;97084.97;;;10.95;100.00
64253;BME280;50592;52.958;-7.470;2023-03-13T00:46:31;97079.47;;;10.97;100.00
64253;BME280;50592;52.958;-7.470;2023-03-13T00:49:01;97082.22;;;11.02;100.00
64253;BME280;50592;52.958;-7.470;2023-03-13T00:51:31;97076.94;;;11.02;100.00
64253;BME280;50592;52.958;-7.470;2023-03-13T00:54:01;97081.75;;;11.05;100.00
64253;BME280;50592;52.958;-7.470;2023-03-13T00:56:33;97078.88;;;11.07;100.00
64253;BME280;50592;52.958;-7.470;2023-03-13T00:59:03;97061.16;;;11.07;100.00
64253;BME280;50592;52.958;-7.470;2023-03-13T01:01:33;97069.69;;;11.09;100.00
64253;BME280;50592;52.958;-7.470;2023-03-13T01:04:10;97064.41;;;11.09;100.00
64253;BME280;50592;52.958;-7.470;2023-03-13T01:06:39;97061.53;;;11.11;100.00
64253;BME280;50592;52.958;-7.470;2023-03-13T01:09:14;97044.63;;;11.12;100.00
64253;BME280;50592;52.958;-7.470;2023-03-13T01:11:45;97047.03;;;11.13;100.00
64253;BME280;50592;52.958;-7.470;2023-03-13T01:14:17;97034.41;;;11.15;100.00
64253;BME280;50592;52.958;-7.470;2023-03-13T01:16:47;97030.94;;;11.15;100.00
64253;BME280;50592;52.958;-7.470;2023-03-13T01:19:15;97025.66;;;11.15;100.00
64253;BME280;50592;52.958;-7.470;2023-03-13T01:21:46;97023.59;;;11.17;100.00
64253;BME280;50592;52.958;-7.470;2023-03-13T01:24:16;97013.00;;;11.17;100.00
64253;BME280;50592;52.958;-7.470;2023-03-13T01:26:47;96997.38;;;11.15;100.00
64253;BME280;50592;52.958;-7.470;2023-03-13T01:29:17;96988.88;;;11.13;100.00
64253;BME280;50592;52.958;-7.470;2023-03-13T01:31:44;96982.47;;;11.09;100.00
64253;BME280;50592;52.958;-7.470;2023-03-13T01:34:13;96968.19;;;11.10;100.00
64253;BME280;50592;52.958;-7.470;2023-03-13T01:36:40;96967.06;;;11.06;100.00
64253;BME280;50592;52.958;-7.470;2023-03-13T01:39:11;96961.31;;;11.09;100.00
64253;BME280;50592;52.958;-7.470;2023-03-13T01:41:41;96953.16;;;11.11;100.00
64253;BME280;50592;52.958;-7.470;2023-03-13T01:44:20;96950.75;;;11.09;100.00
64253;BME280;50592;52.958;-7.470;2023-03-13T01:46:51;96951.22;;;11.06;100.00
64253;BME280;50592;52.958;-7.470;2023-03-13T01:49:30;96940.31;;;11.02;100.00
64253;BME280;50592;52.958;-7.470;2023-03-13T01:52:09;96946.88;;;11.00;100.00
64253;BME280;50592;52.958;-7.470;2023-03-13T01:54:50;96947.09;;;10.98;100.00
64253;BME280;50592;52.958;-7.470;2023-03-13T01:57:28;96949.97;;;10.97;100.00
64253;BME280;50592;52.958;-7.470;2023-03-13T02:00:05;96949.41;;;10.95;100.00
64253;BME280;50592;52.958;-7.470;2023-03-13T02:02:50;96943.53;;;10.92;100.00
64253;BME280;50592;52.958;-7.470;2023-03-13T02:05:20;96944.25;;;10.88;100.00
64253;BME280;50592;52.958;-7.470;2023-03-13T02:07:59;96941.59;;;10.88;100.00
64253;BME280;50592;52.958;-7.470;2023-03-13T02:10:33;96937.59;;;10.85;100.00
64253;BME280;50592;52.958;-7.470;2023-03-13T02:13:04;96932.19;;;10.80;100.00
64253;BME280;50592;52.958;-7.470;2023-03-13T02:15:33;96929.31;;;10.82;100.00
64253;BME280;50592;52.958;-7.470;2023-03-13T02:18:00;96922.22;;;10.82;100.00
64253;BME280;50592;52.958;-7.470;2023-03-13T02:20:30;96914.88;;;10.84;100.00
64253;BME280;50592;52.958;-7.470;2023-03-13T02:25:53;96898.19;;;10.84;100.00
64253;BME280;50592;52.958;-7.470;2023-03-13T02:28:31;96888.22;;;10.86;100.00
64253;BME280;50592;52.958;-7.470;2023-03-13T02:31:05;96884.53;;;10.87;100.00
64253;BME280;50592;52.958;-7.470;2023-03-13T02:33:38;96881.06;;;10.86;100.00
64253;BME280;50592;52.958;-7.470;2023-03-13T02:36:10;96868.66;;;10.87;100.00
64253;BME280;50592;52.958;-7.470;2023-03-13T02:38:47;96862.34;;;10.88;100.00
64253;BME280;50592;52.958;-7.470;2023-03-13T02:41:21;96863.16;;;10.88;100.00
64253;BME280;50592;52.958;-7.470;2023-03-13T02:43:52;96849.13;;;10.88;100.00
64253;BME280;50592;52.958;-7.470;2023-03-13T02:46:20;96843.84;;;10.88;100.00
64253;BME280;50592;52.958;-7.470;2023-03-13T02:48:55;96839.38;;;10.88;100.00
64253;BME280;50592;52.958;-7.470;2023-03-13T02:51:43;96821.13;;;10.87;100.00
64253;BME280;50592;52.958;-7.470;2023-03-13T02:54:20;96826.63;;;10.85;100.00
64253;BME280;50592;52.958;-7.470;2023-03-13T02:56:56;96810.44;;;10.82;100.00
64253;BME280;50592;52.958;-7.470;2023-03-13T02:59:27;96805.09;;;10.76;100.00
64253;BME280;50592;52.958;-7.470;2023-03-13T03:01:57;96800.28;;;10.73;100.00
64253;BME280;50592;52.958;-7.470;2023-03-13T03:04:27;96799.72;;;10.71;100.00
64253;BME280;50592;52.958;-7.470;2023-03-13T03:06:55;96796.72;;;10.67;100.00
64253;BME280;50592;52.958;-7.470;2023-03-13T03:09:25;96790.09;;;10.65;100.00
64253;BME280;50592;52.958;-7.470;2023-03-13T03:11:56;96782.28;;;10.58;100.00
64253;BME280;50592;52.958;-7.470;2023-03-13T03:14:29;96777.81;;;10.59;100.00
64253;BME280;50592;52.958;-7.470;2023-03-13T03:16:56;96777.63;;;10.48;100.00
64253;BME280;50592;52.958;-7.470;2023-03-13T03:19:26;96771.19;;;10.44;100.00
64253;BME280;50592;52.958;-7.470;2023-03-13T03:21:53;96764.97;;;10.38;100.00
64253;BME280;50592;52.958;-7.470;2023-03-13T03:24:22;96767.84;;;10.37;100.00
64253;BME280;50592;52.958;-7.470;2023-03-13T03:26:48;96755.84;;;10.29;100.00
64253;BME280;50592;52.958;-7.470;2023-03-13T03:29:25;96735.88;;;10.21;100.00
64253;BME280;50592;52.958;-7.470;2023-03-13T03:31:54;96727.22;;;10.09;100.00
64253;BME280;50592;52.958;-7.470;2023-03-13T03:34:24;96747.88;;;10.00;100.00
64253;BME280;50592;52.958;-7.470;2023-03-13T03:36:51;96762.69;;;9.89;100.00
64253;BME280;50592;52.958;-7.470;2023-03-13T03:39:20;96758.31;;;9.83;100.00
64253;BME280;50592;52.958;-7.470;2023-03-13T03:41:47;96760.75;;;9.72;100.00
64253;BME280;50592;52.958;-7.470;2023-03-13T03:44:16;96741.38;;;9.66;100.00
64253;BME280;50592;52.958;-7.470;2023-03-13T03:47:02;96736.00;;;9.61;100.00
64253;BME280;50592;52.958;-7.470;2023-03-13T03:49:37;96730.94;;;9.60;100.00
64253;BME280;50592;52.958;-7.470;2023-03-13T03:52:04;96738.06;;;9.59;100.00
64253;BME280;50592;52.958;-7.470;2023-03-13T03:54:36;96744.38;;;9.58;100.00
64253;BME280;50592;52.958;-7.470;2023-03-13T03:57:04;96752.28;;;9.58;100.00
64253;BME280;50592;52.958;-7.470;2023-03-13T03:59:33;96769.91;;;9.58;100.00
64253;BME280;50592;52.958;-7.470;2023-03-13T04:02:03;96772.78;;;9.56;100.00
64253;BME280;50592;52.958;-7.470;2023-03-13T04:04:31;96764.75;;;9.51;100.00
64253;BME280;50592;52.958;-7.470;2023-03-13T04:07:09;96747.34;;;9.50;100.00
64253;BME280;50592;52.958;-7.470;2023-03-13T04:09:37;96729.69;;;9.50;100.00
64253;BME280;50592;52.958;-7.470;2023-03-13T04:12:07;96740.25;;;9.50;100.00
64253;BME280;50592;52.958;-7.470;2023-03-13T04:14:40;96746.06;;;9.52;100.00
64253;BME280;50592;52.958;-7.470;2023-03-13T04:17:09;96726.25;;;9.50;100.00
64253;BME280;50592;52.958;-7.470;2023-03-13T04:19:38;96719.16;;;9.50;100.00
64253;BME280;50592;52.958;-7.470;2023-03-13T04:22:06;96719.81;;;9.58;100.00
64253;BME280;50592;52.958;-7.470;2023-03-13T04:24:33;96702.19;;;9.58;100.00
64253;BME280;50592;52.958;-7.470;2023-03-13T04:27:03;96691.97;;;9.62;100.00
64253;BME280;50592;52.958;-7.470;2023-03-13T04:29:32;96694.94;;;9.65;100.00
64253;BME280;50592;52.958;-7.470;2023-03-13T04:32:22;96700.44;;;9.64;100.00
64253;BME280;50592;52.958;-7.470;2023-03-13T04:35:12;96704.00;;;9.70;100.00
64253;BME280;50592;52.958;-7.470;2023-03-13T04:37:45;96698.16;;;9.67;100.00
64253;BME280;50592;52.958;-7.470;2023-03-13T04:40:38;96694.00;;;9.72;100.00
64253;BME280;50592;52.958;-7.470;2023-03-13T04:43:25;96687.97;;;9.71;100.00
64253;BME280;50592;52.958;-7.470;2023-03-13T04:46:07;96693.78;;;9.73;100.00
64253;BME280;50592;52.958;-7.470;2023-03-13T04:49:12;96694.59;;;9.74;100.00
64253;BME280;50592;52.958;-7.470;2023-03-13T04:52:00;96688.19;;;9.70;100.00
64253;BME280;50592;52.958;-7.470;2023-03-13T04:54:45;96693.94;;;9.66;100.00
64253;BME280;50592;52.958;-7.470;2023-03-13T04:57:34;96688.88;;;9.65;100.00
64253;BME280;50592;52.958;-7.470;2023-03-13T05:00:21;96685.56;;;9.58;100.00
64253;BME280;50592;52.958;-7.470;2023-03-13T05:03:16;96688.06;;;9.52;100.00
64253;BME280;50592;52.958;-7.470;2023-03-13T05:06:01;96690.28;;;9.43;100.00
64253;BME280;50592;52.958;-7.470;2023-03-13T05:08:57;96680.06;;;9.35;100.00
64253;BME280;50592;52.958;-7.470;2023-03-13T05:11:52;96686.94;;;9.24;100.00
64253;BME280;50592;52.958;-7.470;2023-03-13T05:14:44;96688.00;;;9.23;100.00
64253;BME280;50592;52.958;-7.470;2023-03-13T05:17:46;96679.16;;;9.17;100.00
64253;BME280;50592;52.958;-7.470;2023-03-13T05:20:26;96686.59;;;9.21;100.00
64253;BME280;50592;52.958;-7.470;2023-03-13T05:23:05;96679.50;;;9.21;100.00
64253;BME280;50592;52.958;-7.470;2023-03-13T05:25:55;96685.34;;;9.23;100.00
64253;BME280;50592;52.958;-7.470;2023-03-13T05:28:39;96680.09;;;9.23;100.00
64253;BME280;50592;52.958;-7.470;2023-03-13T05:31:29;96682.03;;;9.28;100.00
64253;BME280;50592;52.958;-7.470;2023-03-13T05:34:17;96683.38;;;9.30;100.00
64253;BME280;50592;52.958;-7.470;2023-03-13T05:37:13;96689.81;;;9.35;100.00
64253;BME280;50592;52.958;-7.470;2023-03-13T05:39:42;96686.16;;;9.36;100.00
64253;BME280;50592;52.958;-7.470;2023-03-13T05:42:36;96684.88;;;9.38;100.00
64253;BME280;50592;52.958;-7.470;2023-03-13T05:45:27;96690.28;;;9.43;100.00
64253;BME280;50592;52.958;-7.470;2023-03-13T05:48:09;96686.81;;;9.43;100.00
64253;BME280;50592;52.958;-7.470;2023-03-13T05:51:14;96678.69;;;9.45;100.00
64253;BME280;50592;52.958;-7.470;2023-03-13T05:54:10;96687.41;;;9.45;100.00
64253;BME280;50592;52.958;-7.470;2023-03-13T05:57:07;96680.06;;;9.47;100.00
64253;BME280;50592;52.958;-7.470;2023-03-13T05:59:54;96674.81;;;9.47;100.00
64253;BME280;50592;52.958;-7.470;2023-03-13T06:02:39;96670.22;;;9.42;100.00
64253;BME280;50592;52.958;-7.470;2023-03-13T06:05:12;96679.03;;;9.48;100.00
64253;BME280;50592;52.958;-7.470;2023-03-13T06:07:42;96679.03;;;9.48;100.00
64253;BME280;50592;52.958;-7.470;2023-03-13T06:10:11;96679.63;;;9.50;100.00
64253;BME280;50592;52.958;-7.470;2023-03-13T06:12:38;96683.72;;;9.46;100.00
64253;BME280;50592;52.958;-7.470;2023-03-13T06:15:10;96683.25;;;9.49;100.00
64253;BME280;50592;52.958;-7.470;2023-03-13T06:17:55;96681.66;;;9.48;100.00
64253;BME280;50592;52.958;-7.470;2023-03-13T06:20:25;96676.97;;;9.50;100.00
64253;BME280;50592;52.958;-7.470;2023-03-13T06:22:55;96687.28;;;9.52;100.00
64253;BME280;50592;52.958;-7.470;2023-03-13T06:25:21;96674.34;;;9.50;100.00
64253;BME280;50592;52.958;-7.470;2023-03-13T06:27:52;96666.97;;;9.52;100.00
64253;BME280;50592;52.958;-7.470;2023-03-13T06:30:19;96665.28;;;9.46;100.00
64253;BME280;50592;52.958;-7.470;2023-03-13T06:32:49;96668.25;;;9.50;100.00
64253;BME280;50592;52.958;-7.470;2023-03-13T06:35:16;96669.31;;;9.49;100.00
64253;BME280;50592;52.958;-7.470;2023-03-13T06:37:46;96676.97;;;9.50;100.00
64253;BME280;50592;52.958;-7.470;2023-03-13T06:40:16;96674.09;;;9.52;100.00
64253;BME280;50592;52.958;-7.470;2023-03-13T06:42:46;96676.97;;;9.50;100.00
64253;BME280;50592;52.958;-7.470;2023-03-13T06:45:12;96666.66;;;9.49;100.00
64253;BME280;50592;52.958;-7.470;2023-03-13T06:47:41;96674.34;;;9.50;100.00
64253;BME280;50592;52.958;-7.470;2023-03-13T06:50:09;96675.59;;;9.48;100.00
64253;BME280;50592;52.958;-7.470;2023-03-13T06:52:38;96677.22;;;9.49;100.00
64253;BME280;50592;52.958;-7.470;2023-03-13T06:55:08;96676.16;;;9.50;100.00
64253;BME280;50592;52.958;-7.470;2023-03-13T06:57:38;96679.84;;;9.49;100.00
64253;BME280;50592;52.958;-7.470;2023-03-13T07:00:11;96670.09;;;9.49;100.00
64253;BME280;50592;52.958;-7.470;2023-03-13T07:02:39;96677.22;;;9.49;100.00
64253;BME280;50592;52.958;-7.470;2023-03-13T07:05:07;96671.13;;;9.48;100.00
64253;BME280;50592;52.958;-7.470;2023-03-13T07:07:35;96674.56;;;9.49;100.00
64253;BME280;50592;52.958;-7.470;2023-03-13T07:10:02;96675.81;;;9.46;100.00
64253;BME280;50592;52.958;-7.470;2023-03-13T07:12:36;96672.16;;;9.47;100.00
64253;BME280;50592;52.958;-7.470;2023-03-13T07:15:04;96670.53;;;9.46;100.00
64253;BME280;50592;52.958;-7.470;2023-03-13T07:17:33;96676.63;;;9.47;100.00
64253;BME280;50592;52.958;-7.470;2023-03-13T07:20:00;96678.44;;;9.46;100.00
64253;BME280;50592;52.958;-7.470;2023-03-13T07:22:30;96681.22;;;9.51;100.00
64253;BME280;50592;52.958;-7.470;2023-03-13T07:25:00;96682.81;;;9.52;100.00
64253;BME280;50592;52.958;-7.470;2023-03-13T07:27:30;96686.47;;;9.51;100.00
64253;BME280;50592;52.958;-7.470;2023-03-13T07:29:59;96690.47;;;9.54;100.00
64253;BME280;50592;52.958;-7.470;2023-03-13T07:32:30;96688.19;;;9.58;100.00
64253;BME280;50592;52.958;-7.470;2023-03-13T07:35:01;96693.22;;;9.59;100.00
64253;BME280;50592;52.958;-7.470;2023-03-13T07:37:32;96687.72;;;9.61;100.00
64253;BME280;50592;52.958;-7.470;2023-03-13T07:40:02;96690.38;;;9.61;100.00
64253;BME280;50592;52.958;-7.470;2023-03-13T07:42:32;96691.75;;;9.63;100.00
64253;BME280;50592;52.958;-7.470;2023-03-13T07:45:02;96698.84;;;9.63;100.00
64253;BME280;50592;52.958;-7.470;2023-03-13T07:47:35;96701.25;;;9.64;100.00
64253;BME280;50592;52.958;-7.470;2023-03-13T07:50:02;96705.72;;;9.64;100.00
64253;BME280;50592;52.958;-7.470;2023-03-13T07:52:31;96710.53;;;9.67;100.00
64253;BME280;50592;52.958;-7.470;2023-03-13T07:54:58;96709.75;;;9.66;100.00
64253;BME280;50592;52.958;-7.470;2023-03-13T07:57:27;96708.72;;;9.67;100.00
64253;BME280;50592;52.958;-7.470;2023-03-13T07:59:54;96703.19;;;9.69;100.00
64253;BME280;50592;52.958;-7.470;2023-03-13T08:02:24;96706.72;;;9.75;100.00
64253;BME280;50592;52.958;-7.470;2023-03-13T08:04:52;96702.03;;;9.77;100.00
64253;BME280;50592;52.958;-7.470;2023-03-13T08:07:20;96703.16;;;9.81;100.00
64253;BME280;50592;52.958;-7.470;2023-03-13T08:09:47;96705.25;;;9.79;100.00
64253;BME280;50592;52.958;-7.470;2023-03-13T08:12:16;96705.38;;;9.84;100.00
64253;BME280;50592;52.958;-7.470;2023-03-13T08:14:43;96708.78;;;9.85;100.00
64253;BME280;50592;52.958;-7.470;2023-03-13T08:17:13;96701.47;;;9.87;100.00
64253;BME280;50592;52.958;-7.470;2023-03-13T08:19:43;96711.53;;;9.90;100.00
64253;BME280;50592;52.958;-7.470;2023-03-13T08:22:09;96707.63;;;9.92;100.00
64253;BME280;50592;52.958;-7.470;2023-03-13T08:24:39;96701.09;;;9.95;100.00
64253;BME280;50592;52.958;-7.470;2023-03-13T08:27:09;96710.38;;;9.98;100.00
64253;BME280;50592;52.958;-7.470;2023-03-13T08:29:39;96705.69;;;10.00;100.00
64253;BME280;50592;52.958;-7.470;2023-03-13T08:32:06;96707.72;;;9.98;100.00
64253;BME280;50592;52.958;-7.470;2023-03-13T08:34:37;96722.88;;;10.02;100.00
64253;BME280;50592;52.958;-7.470;2023-03-13T08:37:07;96718.06;;;9.99;100.00
64253;BME280;50592;52.958;-7.470;2023-03-13T08:39:37;96725.97;;;9.99;100.00
64253;BME280;50592;52.958;-7.470;2023-03-13T08:42:07;96729.66;;;9.98;100.00
64253;BME280;50592;52.958;-7.470;2023-03-13T08:44:39;96727.00;;;9.98;100.00
64253;BME280;50592;52.958;-7.470;2023-03-13T08:47:06;96728.25;;;9.96;100.00
64253;BME280;50592;52.958;-7.470;2023-03-13T08:49:36;96729.88;;;9.97;100.00
64253;BME280;50592;52.958;-7.470;2023-03-13T08:52:06;96730.66;;;9.97;100.00
64253;BME280;50592;52.958;-7.470;2023-03-13T08:54:33;96735.41;;;9.95;100.00
64253;BME280;50592;52.958;-7.470;2023-03-13T08:57:02;96727.78;;;9.99;100.00
64253;BME280;50592;52.958;-7.470;2023-03-13T08:59:29;96731.13;;;9.94;100.00
64253;BME280;50592;52.958;-7.470;2023-03-13T09:01:57;96730.13;;;9.95;100.00
64253;BME280;50592;52.958;-7.470;2023-03-13T09:04:24;96734.47;;;9.89;100.00
64253;BME280;50592;52.958;-7.470;2023-03-13T09:06:54;96734.47;;;9.89;100.00
64253;BME280;50592;52.958;-7.470;2023-03-13T09:09:21;96732.06;;;9.88;100.00
64253;BME280;50592;52.958;-7.470;2023-03-13T09:11:51;96726.00;;;9.87;100.00
64253;BME280;50592;52.958;-7.470;2023-03-13T09:14:17;96733.09;;;9.87;100.00
64253;BME280;50592;52.958;-7.470;2023-03-13T09:16:46;96732.41;;;9.91;100.00
64253;BME280;50592;52.958;-7.470;2023-03-13T09:19:13;96738.25;;;9.93;100.00
64253;BME280;50592;52.958;-7.470;2023-03-13T09:21:42;96742.84;;;9.98;100.00
64253;BME280;50592;52.958;-7.470;2023-03-13T09:24:09;96741.22;;;9.97;100.00
64253;BME280;50592;52.958;-7.470;2023-03-13T09:26:39;96739.75;;;10.01;100.00
64253;BME280;50592;52.958;-7.470;2023-03-13T09:29:06;96744.44;;;9.99;100.00
64253;BME280;50592;52.958;-7.470;2023-03-13T09:31:36;96753.25;;;10.05;100.00
64253;BME280;50592;52.958;-7.470;2023-03-13T09:34:06;96747.72;;;10.07;100.00
64253;BME280;50592;52.958;-7.470;2023-03-13T09:36:33;96756.81;;;10.11;100.00
64253;BME280;50592;52.958;-7.470;2023-03-13T09:39:02;96753.59;;;10.21;100.00
64253;BME280;50592;52.958;-7.470;2023-03-13T09:41:38;96754.47;;;10.26;100.00
64253;BME280;50592;52.958;-7.470;2023-03-13T09:46:58;96744.91;;;10.37;100.00
64253;BME280;50592;52.958;-7.470;2023-03-13T09:52:14;96762.91;;;10.40;100.00
64253;BME280;50592;52.958;-7.470;2023-03-13T09:57:34;96749.97;;;10.51;100.00
64253;BME280;50592;52.958;-7.470;2023-03-13T10:00:57;96755.88;;;10.58;100.00
64253;BME280;50592;52.958;-7.470;2023-03-13T10:03:04;96761.16;;;10.58;100.00
64253;BME280;50592;52.958;-7.470;2023-03-13T10:05:46;96762.06;;;10.64;100.00
64253;BME280;50592;52.958;-7.470;2023-03-13T10:08:19;96762.63;;;10.66;100.00
64253;BME280;50592;52.958;-7.470;2023-03-13T10:10:56;96762.72;;;10.71;100.00
64253;BME280;50592;52.958;-7.470;2023-03-13T10:13:52;96769.56;;;10.84;100.00
64253;BME280;50592;52.958;-7.470;2023-03-13T10:16:34;96763.72;;;10.99;100.00
64253;BME280;50592;52.958;-7.470;2023-03-13T10:19:18;96763.75;;;11.16;100.00
64253;BME280;50592;52.958;-7.470;2023-03-13T10:21:51;96768.16;;;11.28;100.00
64253;BME280;50592;52.958;-7.470;2023-03-13T10:24:32;96764.16;;;11.25;100.00
64253;BME280;50592;52.958;-7.470;2023-03-13T10:26:59;96772.09;;;11.25;100.00
64253;BME280;50592;52.958;-7.470;2023-03-13T10:29:29;96770.88;;;11.33;100.00
64253;BME280;50592;52.958;-7.470;2023-03-13T10:34:30;96778.59;;;11.35;100.00
64253;BME280;50592;52.958;-7.470;2023-03-13T10:37:15;96774.50;;;11.27;100.00
64253;BME280;50592;52.958;-7.470;2023-03-13T10:39:46;96782.56;;;11.20;100.00
64253;BME280;50592;52.958;-7.470;2023-03-13T10:42:26;96788.19;;;11.24;100.00
64253;BME280;50592;52.958;-7.470;2023-03-13T10:44:58;96790.75;;;11.19;100.00
64253;BME280;50592;52.958;-7.470;2023-03-13T10:47:26;96802.84;;;11.14;100.00
64253;BME280;50592;52.958;-7.470;2023-03-13T10:49:57;96801.56;;;11.17;100.00
64253;BME280;50592;52.958;-7.470;2023-03-13T10:52:44;96793.16;;;11.20;100.00
64253;BME280;50592;52.958;-7.470;2023-03-13T10:55:17;96792.03;;;11.16;100.00
64253;BME280;50592;52.958;-7.470;2023-03-13T10:58:01;96796.94;;;11.24;100.00
64253;BME280;50592;52.958;-7.470;2023-03-13T11:00:36;96800.78;;;11.34;100.00
64253;BME280;50592;52.958;-7.470;2023-03-13T11:03:18;96810.16;;;11.41;100.00
64253;BME280;50592;52.958;-7.470;2023-03-13T11:05:59;96822.91;;;11.45;100.00
64253;BME280;50592;52.958;-7.470;2023-03-13T11:08:35;96825.31;;;11.46;100.00
64253;BME280;50592;52.958;-7.470;2023-03-13T11:11:17;96828.34;;;11.55;100.00
64253;BME280;50592;52.958;-7.470;2023-03-13T11:13:45;96828.56;;;11.53;100.00
64253;BME280;50592;52.958;-7.470;2023-03-13T11:16:27;96842.94;;;11.58;100.00
64253;BME280;50592;52.958;-7.470;2023-03-13T11:33:04;96832.91;;;11.77;100.00
64253;BME280;50592;52.958;-7.470;2023-03-13T11:35:42;96832.84;;;11.72;100.00
64253;BME280;50592;52.958;-7.470;2023-03-13T11:38:17;96833.72;;;11.60;100.00
64253;BME280;50592;52.958;-7.470;2023-03-13T11:44:23;96833.25;;;11.46;100.00
64253;BME280;50592;52.958;-7.470;2023-03-13T12:00:31;96837.31;;;11.37;100.00
64253;BME280;50592;52.958;-7.470;2023-03-13T12:03:10;96836.84;;;11.40;100.00
64253;BME280;50592;52.958;-7.470;2023-03-13T12:05:47;96831.06;;;11.43;100.00
64253;BME280;50592;52.958;-7.470;2023-03-13T12:08:25;96839.41;;;11.52;100.00
64253;BME280;50592;52.958;-7.470;2023-03-13T12:11:03;96830.75;;;11.57;100.00
64253;BME280;50592;52.958;-7.470;2023-03-13T12:13:39;96829.47;;;11.59;100.00
64253;BME280;50592;52.958;-7.470;2023-03-13T12:16:24;96836.38;;;11.60;100.00
64253;BME280;50592;52.958;-7.470;2023-03-13T12:18:55;96839.00;;;11.60;100.00
64253;BME280;50592;52.958;-7.470;2023-03-13T12:21:38;96829.88;;;11.68;100.00
64253;BME280;50592;52.958;-7.470;2023-03-13T12:24:31;96835.94;;;11.86;100.00
64253;BME280;50592;52.958;-7.470;2023-03-13T12:30:55;96826.63;;;12.00;100.00
64253;BME280;50592;52.958;-7.470;2023-03-13T12:33:20;96835.34;;;12.01;100.00
64253;BME280;50592;52.958;-7.470;2023-03-13T12:36:23;96831.69;;;12.02;100.00
64253;BME280;50592;52.958;-7.470;2023-03-13T12:44:38;96823.81;;;12.24;100.00
64253;BME280;50592;52.958;-7.470;2023-03-13T12:47:32;96826.25;;;12.31;100.00
64253;BME280;50592;52.958;-7.470;2023-03-13T13:01:21;96830.53;;;13.05;100.00
64253;BME280;50592;52.958;-7.470;2023-03-13T13:04:00;96822.38;;;13.11;100.00
64253;BME280;50592;52.958;-7.470;2023-03-13T13:09:28;96822.88;;;13.36;100.00
64253;BME280;50592;52.958;-7.470;2023-03-13T13:11:59;96819.16;;;13.37;100.00
64253;BME280;50592;52.958;-7.470;2023-03-13T13:32:50;96822.72;;;12.93;100.00
64253;BME280;50592;52.958;-7.470;2023-03-13T13:35:32;96828.94;;;13.03;100.00
64253;BME280;50592;52.958;-7.470;2023-03-13T13:40:58;96820.97;;;13.03;100.00
64253;BME280;50592;52.958;-7.470;2023-03-13T13:43:30;96819.38;;;13.02;100.00
64253;BME280;50592;52.958;-7.470;2023-03-13T13:46:04;96818.81;;;13.00;100.00
64253;BME280;50592;52.958;-7.470;2023-03-13T13:48:37;96834.13;;;12.93;100.00
64253;BME280;50592;52.958;-7.470;2023-03-13T14:04:37;96897.09;;;10.43;100.00
64253;BME280;50592;52.958;-7.470;2023-03-13T14:07:15;96907.34;;;10.16;100.00
64253;BME280;50592;52.958;-7.470;2023-03-13T14:09:53;96904.91;;;9.90;100.00
64253;BME280;50592;52.958;-7.470;2023-03-13T14:15:17;96924.25;;;9.72;100.00
64253;BME280;50592;52.958;-7.470;2023-03-13T14:17:56;96930.19;;;9.55;100.00
64253;BME280;50592;52.958;-7.470;2023-03-13T14:20:31;96932.78;;;9.43;100.00
64253;BME280;50592;52.958;-7.470;2023-03-13T14:23:07;96940.66;;;9.32;100.00
64253;BME280;50592;52.958;-7.470;2023-03-13T14:25:46;96949.06;;;9.22;100.00
64253;BME280;50592;52.958;-7.470;2023-03-13T14:28:23;96959.84;;;9.20;100.00
64253;BME280;50592;52.958;-7.470;2023-03-13T14:30:52;96961.66;;;9.20;100.00
64253;BME280;50592;52.958;-7.470;2023-03-13T14:33:25;96969.34;;;9.21;100.00
64253;BME280;50592;52.958;-7.470;2023-03-13T14:35:55;96962.78;;;9.12;100.00
64253;BME280;50592;52.958;-7.470;2023-03-13T14:38:26;96972.41;;;9.18;100.00
64253;BME280;50592;52.958;-7.470;2023-03-13T14:40:55;96977.69;;;9.18;100.00
64253;BME280;50592;52.958;-7.470;2023-03-13T14:45:59;96995.97;;;9.13;100.00
64253;BME280;50592;52.958;-7.470;2023-03-13T14:51:21;97018.53;;;8.90;100.00
64253;BME280;50592;52.958;-7.470;2023-03-13T14:56:35;97025.25;;;8.86;100.00
64253;BME280;50592;52.958;-7.470;2023-03-13T14:59:11;97036.81;;;8.85;100.00
64253;BME280;50592;52.958;-7.470;2023-03-13T15:01:44;97027.38;;;8.77;100.00
64253;BME280;50592;52.958;-7.470;2023-03-13T15:04:11;97038.59;;;8.65;100.00
64253;BME280;50592;52.958;-7.470;2023-03-13T15:06:41;97050.00;;;8.59;100.00
64253;BME280;50592;52.958;-7.470;2023-03-13T15:11:58;97076.31;;;8.59;100.00
64253;BME280;50592;52.958;-7.470;2023-03-13T15:17:20;97096.78;;;8.57;100.00
64253;BME280;50592;52.958;-7.470;2023-03-13T15:19:57;97099.22;;;8.59;100.00